Time;durP1;ratioP1;P1;durP2;ratioP2;P2;SDS_P1;SDS_P2;PMS_P1;PMS_P2;Temp;Humidity;BMP_temperature;BMP_pressure;BME280_temperature;BME280_humidity;BME280_pressure;Samples;Min_cycle;Max_cycle;Signal;HPM_P1;HPM_P2
2021/06/30 00:01:37;;;;;;;8.58;4.35;;;;;;;16.21;82.60;99221.74;1714136;83;20115;-61
2021/06/30 00:04:04;;;;;;;8.53;4.53;;;;;;;16.11;83.00;99222.86;1704768;83;21043;-61
2021/06/30 00:06:31;;;;;;;8.10;4.80;;;;;;;16.07;83.28;99219.14;1711976;81;21008;-61
2021/06/30 00:08:58;;;;;;;6.42;5.12;;;;;;;16.09;83.49;99223.73;1736026;82;20983;-61
2021/06/30 00:11:26;;;;;;;6.92;4.80;;;;;;;16.13;83.55;99220.59;1714998;83;21027;-61
2021/06/30 00:13:53;;;;;;;6.62;4.87;;;;;;;16.19;83.59;99229.50;1708761;83;21068;-61
2021/06/30 00:16:21;;;;;;;6.55;4.80;;;;;;;16.25;83.57;99226.28;1697256;83;20992;-61
2021/06/30 00:18:47;;;;;;;;;;;;;;;16.28;83.54;99232.50;1701066;83;21094;-61
2021/06/30 00:21:15;;;;;;;9.03;5.22;;;;;;;16.31;83.52;99232.41;1713422;83;20119;-62
2021/06/30 00:23:43;;;;;;;17.62;5.47;;;;;;;16.27;83.60;99236.92;1715512;83;21578;-61
2021/06/30 00:26:10;;;;;;;8.23;5.28;;;;;;;16.23;83.62;99235.38;1694786;83;21043;-59
2021/06/30 00:28:37;;;;;;;10.55;5.78;;;;;;;16.21;83.55;99242.34;1712360;83;21153;-62
2021/06/30 00:31:03;;;;;;;;;;;;;;;16.22;83.44;99241.22;1706342;83;21379;-61
2021/06/30 00:33:29;;;;;;;7.00;4.72;;;;;;;16.24;83.36;99240.31;1703433;83;20110;-61
2021/06/30 00:35:55;;;;;;;10.18;5.20;;;;;;;16.21;83.53;99237.66;1693995;83;21035;-61
2021/06/30 00:38:22;;;;;;;;;;;;;;;16.23;83.46;99231.83;1716584;83;21039;-61
2021/06/30 00:40:48;;;;;;;7.25;5.37;;;;;;;16.20;83.51;99225.61;1715473;83;20107;-61
2021/06/30 00:43:16;;;;;;;7.75;5.17;;;;;;;16.13;83.63;99223.34;1718157;82;21081;-62
2021/06/30 00:45:43;;;;;;;7.50;5.42;;;;;;;16.15;83.76;99225.78;1705021;83;20987;-61
2021/06/30 00:48:10;;;;;;;7.30;5.22;;;;;;;16.16;83.69;99225.44;1711792;82;21076;-61
2021/06/30 00:50:37;;;;;;;7.97;5.65;;;;;;;16.17;83.59;99215.27;1721545;82;21010;-61
2021/06/30 00:53:03;;;;;;;;;;;;;;;16.18;83.46;99216.34;1659501;86;21501;-62
2021/06/30 00:55:30;;;;;;;5.95;4.83;;;;;;;16.17;83.33;99204.28;1668742;85;20120;-62
2021/06/30 00:57:57;;;;;;;;;;;;;;;16.10;83.54;99210.25;1672669;85;21434;-61
2021/06/30 01:00:24;;;;;;;6.60;5.25;;;;;;;16.12;83.68;99205.83;1673541;85;20771;-61
2021/06/30 01:02:50;;;;;;;;;;;;;;;16.06;84.05;99214.77;1717635;82;21018;-61
2021/06/30 01:05:17;;;;;;;9.33;5.37;;;;;;;16.05;84.05;99218.63;1717855;83;20116;-61
2021/06/30 01:07:44;;;;;;;7.95;5.60;;;;;;;16.03;84.05;99212.67;1692515;85;21126;-61
2021/06/30 01:10:11;;;;;;;6.60;5.25;;;;;;;16.07;83.85;99212.83;1703017;83;21393;-61
2021/06/30 01:12:39;;;;;;;8.23;5.53;;;;;;;16.07;83.72;99217.77;1708737;83;21046;-61
2021/06/30 01:15:12;;;;;;;7.08;5.47;;;;;;;16.06;83.55;99213.39;1722642;83;21114;-63
2021/06/30 01:17:39;;;;;;;8.08;5.53;;;;;;;16.06;83.55;99214.77;1706770;83;21420;-61
2021/06/30 01:20:09;;;;;;;8.48;5.95;;;;;;;16.06;83.55;99214.77;1692505;85;21600;-61
2021/06/30 01:22:35;;;;;;;8.10;5.25;;;;;;;16.02;83.62;99207.48;1664038;83;21051;-62
2021/06/30 01:25:01;;;;;;;7.22;5.20;;;;;;;16.02;83.68;99215.16;1716885;83;21093;-61
2021/06/30 01:27:32;;;;;;;6.53;5.00;;;;;;;16.03;83.53;99222.27;1708942;83;21074;-61
2021/06/30 01:29:58;;;;;;;8.10;5.20;;;;;;;16.05;83.39;99212.36;1695859;83;21023;-61
2021/06/30 01:32:25;;;;;;;9.48;5.55;;;;;;;16.01;83.47;99214.94;1697184;83;21611;-61
2021/06/30 01:34:51;;;;;;;8.80;5.42;;;;;;;16.00;83.56;99215.24;1722766;83;21069;-61
2021/06/30 01:37:18;;;;;;;9.23;5.28;;;;;;;16.00;83.49;99217.98;1716544;83;21014;-62
2021/06/30 01:39:45;;;;;;;10.98;5.15;;;;;;;15.99;83.44;99211.69;1692470;85;21098;-61
2021/06/30 01:42:11;;;;;;;;;;;;;;;15.97;83.31;99211.20;1704505;82;21070;-61
2021/06/30 01:44:37;;;;;;;10.90;6.33;;;;;;;15.95;83.36;99212.08;1696745;83;20161;-61
2021/06/30 01:47:04;;;;;;;6.67;5.97;;;;;;;15.89;83.78;99208.69;1711851;83;21021;-61
2021/06/30 01:49:30;;;;;;;;;;;;;;;15.89;84.24;99205.94;1722815;82;21552;-61
2021/06/30 01:51:56;;;;;;;8.75;5.97;;;;;;;15.93;84.12;99210.23;1714064;82;20119;-62
2021/06/30 01:54:23;;;;;;;7.80;5.50;;;;;;;15.87;83.80;99209.55;1727911;82;21002;-61
2021/06/30 01:56:50;;;;;;;8.88;5.53;;;;;;;15.83;83.52;99212.71;1720898;83;21635;-62
2021/06/30 01:59:17;;;;;;;7.97;5.42;;;;;;;15.83;83.48;99221.50;1722635;83;21002;-62
2021/06/30 02:01:44;;;;;;;6.00;4.90;;;;;;;15.85;83.63;99213.75;1728573;82;21526;-62
2021/06/30 02:04:10;;;;;;;7.05;5.08;;;;;;;15.87;83.70;99222.48;1728799;82;21393;-62
2021/06/30 02:06:42;;;;;;;10.00;5.45;;;;;;;15.86;83.53;99227.16;1723713;83;21553;-61
2021/06/30 02:09:12;;;;;;;12.28;5.50;;;;;;;15.86;83.70;99227.16;1728995;83;21016;-61
2021/06/30 02:11:40;;;;;;;10.03;5.03;;;;;;;15.88;83.93;99235.88;1730627;82;21047;-61
2021/06/30 02:14:08;;;;;;;6.80;5.28;;;;;;;15.88;83.91;99239.18;1730680;82;21027;-62
2021/06/30 02:17:38;;;;;;;7.30;5.60;;;;;;;15.85;83.36;99232.96;1784460;79;23025;-63
2021/06/30 02:20:07;;;;;;;6.78;5.50;;;;;;;15.76;83.43;99239.00;1748276;82;21001;-63
2021/06/30 02:22:33;;;;;;;9.75;5.12;;;;;;;15.74;83.65;99231.07;1751000;80;21001;-62
2021/06/30 02:25:00;;;;;;;9.60;5.33;;;;;;;15.80;83.83;99238.61;1751167;82;21543;-63
2021/06/30 02:27:26;;;;;;;8.73;5.67;;;;;;;15.84;83.81;99239.01;1751202;80;21060;-62
2021/06/30 02:29:53;;;;;;;7.78;5.60;;;;;;;15.88;83.77;99237.81;1750898;82;20993;-63
2021/06/30 02:32:19;;;;;;;;;;;;;;;15.91;83.81;99242.66;1753955;82;21974;-62
2021/06/30 02:34:46;;;;;;;9.45;5.67;;;;;;;15.96;83.89;99238.41;1750630;82;20416;-63
2021/06/30 02:37:12;;;;;;;;;;;;;;;15.99;83.97;99239.70;1751670;82;21120;-62
2021/06/30 02:39:39;;;;;;;9.83;6.17;;;;;;;15.97;84.05;99243.34;1751103;82;20130;-63
2021/06/30 02:42:05;;;;;;;9.93;6.20;;;;;;;15.86;84.17;99246.94;1751343;80;21552;-63
2021/06/30 02:44:32;;;;;;;9.08;5.33;;;;;;;15.81;84.15;99241.58;1750115;82;21020;-63
2021/06/30 02:46:58;;;;;;;;;;;;;;;15.85;84.16;99246.69;1734577;80;21112;-63
2021/06/30 02:49:25;;;;;;;9.00;5.90;;;;;;;15.92;84.09;99247.03;1750330;82;20455;-63
2021/06/30 02:51:51;;;;;;;7.12;5.30;;;;;;;15.94;83.99;99240.08;1751313;82;21029;-63
2021/06/30 02:54:18;;;;;;;8.95;5.72;;;;;;;15.98;83.90;99237.51;1751499;82;21448;-63
2021/06/30 02:56:44;;;;;;;9.10;6.25;;;;;;;15.98;83.94;99248.49;1750840;80;21069;-63
2021/06/30 02:59:10;;;;;;;8.40;6.55;;;;;;;15.97;84.22;99250.20;1751689;82;20999;-63
2021/06/30 03:01:37;;;;;;;7.47;5.87;;;;;;;16.03;84.45;99248.36;1750894;82;21077;-62
2021/06/30 03:04:04;;;;;;;9.28;6.40;;;;;;;16.17;84.42;99250.41;1751167;82;21072;-63
2021/06/30 03:06:30;;;;;;;8.40;6.97;;;;;;;16.28;84.50;99247.61;1751068;80;21069;-63
2021/06/30 03:08:57;;;;;;;12.58;6.85;;;;;;;16.37;84.86;99247.03;1751520;82;21545;-63
2021/06/30 03:11:25;;;;;;;7.85;6.12;;;;;;;16.55;85.24;99252.54;1724386;80;21082;-63
2021/06/30 03:13:51;;;;;;;;;;;;;;;16.85;85.49;99251.62;1751638;82;21020;-63
2021/06/30 03:16:18;;;;;;;7.67;6.62;;;;;;;17.17;85.76;99248.34;1747579;81;20119;-62
2021/06/30 03:18:46;;;;;;;7.85;6.87;;;;;;;17.43;85.92;99249.06;1743289;82;21575;-64
2021/06/30 03:21:12;;;;;;;6.87;6.00;;;;;;;17.76;85.81;99254.81;1743560;82;21116;-64
2021/06/30 03:23:39;;;;;;;8.33;6.37;;;;;;;18.16;85.55;99255.83;1743323;82;21588;-64
2021/06/30 03:26:06;;;;;;;11.85;6.83;;;;;;;18.62;85.21;99255.70;1739650;82;21021;-64
2021/06/30 03:28:33;;;;;;;9.05;6.33;;;;;;;19.02;84.30;99256.59;1743160;81;21101;-61
2021/06/30 03:31:01;;;;;;;7.47;5.92;;;;;;;19.35;83.38;99255.98;1738656;82;21527;-64
2021/06/30 03:33:29;;;;;;;7.15;6.30;;;;;;;19.70;82.26;99245.38;1724464;81;21593;-61
2021/06/30 03:35:56;;;;;;;6.75;5.90;;;;;;;20.05;80.72;99252.06;1736868;82;21038;-61
2021/06/30 03:38:22;;;;;;;7.78;5.30;;;;;;;20.44;79.13;99255.31;1733849;81;21097;-61
2021/06/30 03:40:49;;;;;;;7.55;5.53;;;;;;;20.74;77.20;99249.69;1742855;82;21018;-61
2021/06/30 03:43:16;;;;;;;9.70;6.35;;;;;;;20.88;75.09;99256.21;1739243;81;21086;-62
2021/06/30 03:45:42;;;;;;;7.53;5.78;;;;;;;20.98;73.99;99255.70;1742862;82;21540;-63
2021/06/30 03:48:09;;;;;;;8.60;5.95;;;;;;;21.05;72.50;99250.38;1735226;81;21056;-63
2021/06/30 03:50:36;;;;;;;7.22;5.20;;;;;;;21.10;72.52;99249.59;1731073;82;20999;-65
2021/06/30 03:53:02;;;;;;;8.10;5.65;;;;;;;21.27;71.24;99256.77;1743041;81;21548;-65
2021/06/30 03:55:29;;;;;;;8.83;5.20;;;;;;;21.44;70.04;99258.39;1741355;82;21026;-66
2021/06/30 03:57:55;;;;;;;7.83;6.22;;;;;;;21.61;69.64;99258.08;1742948;81;21495;-66
2021/06/30 04:00:26;;;;;;;7.05;5.45;;;;;;;21.84;69.71;99262.64;1742896;82;21038;-65
2021/06/30 04:02:50;;;;;;;6.75;5.20;;;;;;;22.09;69.27;99258.31;1741871;81;21109;-64
2021/06/30 04:05:17;;;;;;;8.08;5.55;;;;;;;22.19;67.15;99260.53;1743036;82;21437;-62
2021/06/30 04:07:43;;;;;;;8.98;5.62;;;;;;;21.93;67.21;99263.08;1743149;82;21369;-62
2021/06/30 04:10:11;;;;;;;9.28;5.22;;;;;;;21.83;68.04;99266.56;1740187;82;20989;-63
2021/06/30 04:12:37;;;;;;;7.62;5.33;;;;;;;22.06;68.66;99262.63;1692788;82;21045;-64
2021/06/30 04:15:07;;;;;;;11.88;5.37;;;;;;;22.47;67.64;99261.19;1741923;82;20963;-64
2021/06/30 04:17:34;;;;;;;9.70;5.50;;;;;;;22.86;66.83;99269.02;1735776;81;21007;-64
2021/06/30 04:20:05;;;;;;;7.35;5.55;;;;;;;23.12;65.15;99263.62;1717552;83;21450;-64
2021/06/30 04:22:32;;;;;;;6.83;5.17;;;;;;;23.13;64.39;99265.20;1707021;83;21064;-63
2021/06/30 04:24:58;;;;;;;6.20;4.72;;;;;;;22.95;63.83;99272.97;1710287;83;21011;-63
2021/06/30 04:27:27;;;;;;;8.45;5.50;;;;;;;22.74;63.95;99276.10;1717324;83;21046;-62
2021/06/30 04:29:53;;;;;;;6.28;5.65;;;;;;;22.73;65.19;99274.48;1707326;82;21099;-63
2021/06/30 04:32:20;;;;;;;7.12;6.25;;;;;;;22.95;63.86;99272.97;1714279;83;21027;-62
2021/06/30 04:34:46;;;;;;;6.78;5.22;;;;;;;23.02;62.74;99276.70;1702456;82;21541;-62
2021/06/30 04:37:12;;;;;;;8.75;5.55;;;;;;;23.06;63.26;99276.77;1697195;83;21142;-63
2021/06/30 04:39:40;;;;;;;8.10;6.00;;;;;;;23.18;63.22;99271.05;1718042;83;21035;-62
2021/06/30 04:42:08;;;;;;;7.65;5.60;;;;;;;23.36;62.75;99272.79;1728926;81;21513;-62
2021/06/30 04:44:34;;;;;;;8.13;5.28;;;;;;;23.52;62.34;99265.20;1711917;83;21007;-63
2021/06/30 04:47:02;;;;;;;6.35;4.95;;;;;;;23.60;61.66;99266.92;1700961;83;21086;-62
2021/06/30 04:49:28;;;;;;;7.17;6.10;;;;;;;23.66;61.55;99256.55;1661478;85;21061;-63
2021/06/30 04:51:55;;;;;;;5.20;4.70;;;;;;;24.08;61.33;99257.84;1714303;83;21585;-64
2021/06/30 04:54:22;;;;;;;6.72;5.05;;;;;;;24.28;60.44;99257.98;1714012;83;20951;-63
2021/06/30 04:56:49;;;;;;;4.58;4.17;;;;;;;24.37;58.92;99257.73;1711921;83;21035;-63
2021/06/30 04:59:17;;;;;;;4.72;4.28;;;;;;;24.37;58.92;99257.73;1689105;83;21015;-62
2021/06/30 05:01:43;;;;;;;7.45;3.90;;;;;;;24.62;59.20;99255.30;1654325;86;21049;-62
2021/06/30 05:04:10;;;;;;;5.53;3.92;;;;;;;24.62;59.20;99255.30;1648134;86;20971;-63
2021/06/30 05:06:37;;;;;;;8.13;3.90;;;;;;;25.10;58.00;99255.75;1624665;87;21059;-62
2021/06/30 05:09:08;;;;;;;3.95;3.20;;;;;;;25.55;57.08;99262.23;1666373;86;20966;-63
2021/06/30 05:11:34;;;;;;;5.40;3.58;;;;;;;25.87;55.00;99266.12;1639926;87;21122;-63
2021/06/30 05:14:00;;;;;;;5.70;3.35;;;;;;;25.84;53.85;99268.87;1648739;86;21008;-63
2021/06/30 05:16:27;;;;;;;5.03;3.72;;;;;;;25.63;54.34;99266.11;1647515;85;23028;-63
2021/06/30 05:18:54;;;;;;;4.42;3.40;;;;;;;25.45;55.87;99269.86;1736919;82;20999;-63
2021/06/30 05:21:22;;;;;;;4.47;3.25;;;;;;;25.32;55.89;99270.73;1737250;82;21025;-63
2021/06/30 05:23:49;;;;;;;4.00;3.35;;;;;;;25.21;56.46;99269.22;1737539;82;21025;-63
2021/06/30 05:26:15;;;;;;;4.75;3.50;;;;;;;25.18;56.19;99266.39;1713252;82;20950;-63
2021/06/30 05:28:42;;;;;;;4.80;3.58;;;;;;;25.15;55.85;99267.92;1731530;82;21528;-64
2021/06/30 05:31:08;;;;;;;5.12;3.50;;;;;;;25.26;55.14;99265.27;1733208;82;20994;-63
2021/06/30 05:33:35;;;;;;;4.08;2.90;;;;;;;25.23;54.62;99266.84;1736946;81;21139;-63
2021/06/30 05:36:04;;;;;;;5.00;3.10;;;;;;;25.24;54.76;99263.47;1737317;82;21037;-63
2021/06/30 05:38:30;;;;;;;5.65;3.00;;;;;;;25.39;53.89;99261.05;1719031;82;21061;-63
2021/06/30 05:40:57;;;;;;;4.05;2.75;;;;;;;25.51;53.98;99265.56;1737567;82;21483;-63
2021/06/30 05:43:24;;;;;;;4.70;2.90;;;;;;;25.57;53.50;99269.04;1737542;82;21068;-64
2021/06/30 05:45:50;;;;;;;4.87;2.60;;;;;;;25.59;51.99;99262.48;1737432;82;21017;-63
2021/06/30 05:48:17;;;;;;;3.47;2.65;;;;;;;25.56;52.62;99264.64;1736274;81;21030;-64
2021/06/30 05:50:44;;;;;;;3.70;2.40;;;;;;;25.85;53.51;99267.11;1733347;82;21061;-64
2021/06/30 05:53:11;;;;;;;3.10;2.42;;;;;;;26.11;51.43;99265.52;1734470;81;21025;-63
2021/06/30 05:55:37;;;;;;;4.37;2.52;;;;;;;26.14;51.04;99257.00;1737277;82;21088;-64
2021/06/30 05:58:04;;;;;;;3.27;2.17;;;;;;;26.18;50.65;99257.86;1737271;81;21049;-64
2021/06/30 06:00:31;;;;;;;5.42;2.40;;;;;;;26.16;49.67;99262.98;1714171;82;21038;-63
2021/06/30 06:02:57;;;;;;;3.52;2.40;;;;;;;26.04;48.79;99261.91;1735407;82;21042;-64
2021/06/30 06:05:24;;;;;;;3.17;2.42;;;;;;;25.95;49.51;99255.25;1718200;82;21005;-64
2021/06/30 06:07:50;;;;;;;4.08;2.70;;;;;;;25.97;50.21;99267.42;1673348;82;21079;-64
2021/06/30 06:10:22;;;;;;;3.25;2.42;;;;;;;26.33;52.62;99264.32;1735591;82;20940;-65
2021/06/30 06:12:49;;;;;;;3.40;2.40;;;;;;;26.88;51.26;99276.27;1699183;84;21022;-64
2021/06/30 06:15:16;;;;;;;5.67;2.70;;;;;;;27.28;48.87;99271.05;1736723;82;20927;-63
2021/06/30 06:17:43;;;;;;;3.72;2.80;;;;;;;27.34;48.56;99271.66;1718476;82;20998;-64
2021/06/30 06:20:10;;;;;;;4.92;2.50;;;;;;;27.41;48.23;99268.88;1734383;80;21306;-63
2021/06/30 06:22:37;;;;;;;3.30;2.50;;;;;;;27.66;48.63;99268.97;1738675;81;21557;-64
2021/06/30 06:25:07;;;;;;;4.80;2.47;;;;;;;27.68;48.77;99266.56;1718397;81;21023;-65
2021/06/30 06:27:35;;;;;;;6.90;2.45;;;;;;;27.59;48.34;99263.36;1736088;81;21573;-63
2021/06/30 06:30:02;;;;;;;5.10;2.15;;;;;;;27.67;48.33;99261.56;1675641;85;21035;-64
2021/06/30 06:32:29;;;;;;;3.02;2.02;;;;;;;27.97;48.33;99261.20;1693480;82;21082;-64
2021/06/30 06:34:55;;;;;;;3.37;1.75;;;;;;;28.18;46.69;99264.62;1697180;82;21019;-64
2021/06/30 06:37:22;;;;;;;2.70;1.60;;;;;;;28.34;45.49;99260.80;1726685;82;21539;-64
2021/06/30 06:39:48;;;;;;;2.37;1.40;;;;;;;28.62;45.95;99261.36;1737213;82;21075;-64
2021/06/30 06:42:15;;;;;;;2.02;1.00;;;;;;;28.91;44.29;99267.09;1737401;82;21689;-64
2021/06/30 06:44:43;;;;;;;3.15;1.30;;;;;;;29.14;40.16;99257.60;1737073;82;21486;-65
2021/06/30 06:47:09;;;;;;;4.35;1.90;;;;;;;29.08;39.36;99262.64;1752438;81;21099;-65
2021/06/30 06:49:35;;;;;;;1.30;1.00;;;;;;;28.91;40.29;99257.91;1744103;81;21039;-62
2021/06/30 06:52:03;;;;;;;1.82;1.27;;;;;;;28.81;38.36;99258.12;1721228;82;21096;-63
2021/06/30 06:54:29;;;;;;;2.27;1.47;;;;;;;28.93;38.66;99260.49;1710134;82;20991;-64
2021/06/30 06:56:56;;;;;;;1.30;1.12;;;;;;;28.99;38.22;99260.27;1723032;81;21092;-63
2021/06/30 06:59:22;;;;;;;3.47;1.47;;;;;;;28.96;39.82;99255.47;1713405;81;21551;-63
2021/06/30 07:01:49;;;;;;;2.80;1.20;;;;;;;29.12;38.19;99260.00;1710605;81;21101;-62
2021/06/30 07:04:15;;;;;;;1.92;1.40;;;;;;;29.18;37.65;99258.19;1733159;82;21497;-63
2021/06/30 07:06:42;;;;;;;1.45;0.90;;;;;;;29.20;38.44;99262.77;1711072;81;21076;-63
2021/06/30 07:09:08;;;;;;;3.83;1.30;;;;;;;29.35;36.98;99262.33;1687680;84;21104;-64
2021/06/30 07:11:35;;;;;;;1.87;1.42;;;;;;;29.49;38.59;99261.45;1718600;82;21142;-62
2021/06/30 07:14:02;;;;;;;2.20;1.80;;;;;;;29.56;39.17;99261.40;1757480;81;21012;-65
2021/06/30 07:16:30;;;;;;;2.42;1.75;;;;;;;29.61;38.93;99255.38;1718573;82;20966;-64
2021/06/30 07:18:56;;;;;;;4.30;2.00;;;;;;;29.68;39.82;99253.92;1740483;82;21005;-63
2021/06/30 07:21:23;;;;;;;1.85;1.65;;;;;;;29.70;38.84;99255.70;1717842;82;21029;-64
2021/06/30 07:23:49;;;;;;;2.45;1.62;;;;;;;29.59;39.25;99257.77;1711261;83;21013;-65
2021/06/30 07:26:16;;;;;;;3.90;1.98;;;;;;;29.53;39.67;99251.01;1708255;82;20970;-63
2021/06/30 07:28:43;;;;;;;2.92;1.67;;;;;;;29.55;40.16;99250.78;1733018;82;21060;-63
2021/06/30 07:31:10;;;;;;;3.77;1.92;;;;;;;29.62;40.69;99251.34;1736577;82;21480;-63
2021/06/30 07:33:40;;;;;;;4.42;1.87;;;;;;;29.63;40.93;99250.14;1695228;82;21049;-63
2021/06/30 07:36:08;;;;;;;4.35;1.80;;;;;;;29.62;41.88;99250.73;1739689;82;21068;-63
2021/06/30 07:38:34;;;;;;;1.85;1.65;;;;;;;29.71;41.57;99247.48;1732281;82;21068;-63
2021/06/30 07:41:01;;;;;;;2.47;1.50;;;;;;;29.83;42.02;99249.78;1732831;81;20993;-64
2021/06/30 07:43:28;;;;;;;3.77;1.30;;;;;;;30.06;40.38;99246.44;1710608;83;21089;-63
2021/06/30 07:45:55;;;;;;;2.08;1.30;;;;;;;30.08;39.60;99244.80;1711055;83;21088;-65
2021/06/30 07:48:22;;;;;;;1.42;1.05;;;;;;;30.04;37.71;99247.47;1710701;84;21147;-63
2021/06/30 07:50:49;;;;;;;1.72;1.20;;;;;;;29.89;36.85;99251.59;1684897;84;21032;-65
2021/06/30 07:53:16;;;;;;;2.27;1.30;;;;;;;29.79;37.17;99246.83;1682543;85;21710;-64
2021/06/30 07:55:42;;;;;;;3.85;1.47;;;;;;;29.69;36.52;99246.31;1697739;82;21039;-64
2021/06/30 07:58:09;;;;;;;3.10;1.50;;;;;;;29.67;37.37;99240.30;1709656;84;21140;-65
2021/06/30 08:00:35;;;;;;;1.85;1.40;;;;;;;29.67;39.98;99248.70;1721648;82;21021;-65
2021/06/30 08:03:02;;;;;;;3.27;1.85;;;;;;;29.77;38.82;99250.03;1726568;82;21142;-64
2021/06/30 08:05:35;;;;;;;1.60;1.50;;;;;;;29.97;40.47;99254.54;1695419;83;21010;-65
2021/06/30 08:07:59;;;;;;;2.47;1.70;;;;;;;30.00;40.59;99248.09;1703630;82;21102;-66
2021/06/30 08:10:27;;;;;;;2.85;1.90;;;;;;;30.09;41.60;99260.44;1716865;82;21524;-64
2021/06/30 08:12:54;;;;;;;4.08;2.02;;;;;;;30.10;40.20;99252.22;1720434;82;21064;-62
2021/06/30 08:15:20;;;;;;;2.62;1.90;;;;;;;30.11;41.15;99257.23;1739882;82;20966;-63
2021/06/30 08:17:47;;;;;;;2.85;1.50;;;;;;;30.19;40.14;99257.34;1733370;82;21152;-63
2021/06/30 08:20:14;;;;;;;2.08;1.45;;;;;;;30.24;39.62;99260.31;1708012;83;20999;-63
2021/06/30 08:22:43;;;;;;;2.92;1.50;;;;;;;30.19;39.68;99255.13;1676712;85;21114;-64
2021/06/30 08:25:10;;;;;;;2.27;1.00;;;;;;;30.25;39.82;99254.30;1676278;85;20991;-66
2021/06/30 08:27:37;;;;;;;2.27;1.20;;;;;;;30.37;40.21;99257.97;1676403;85;21734;-65
2021/06/30 08:30:06;;;;;;;1.75;1.10;;;;;;;30.55;38.61;99258.62;1692991;83;20947;-66
2021/06/30 08:32:33;;;;;;;5.35;1.10;;;;;;;30.68;37.80;99257.47;1687742;84;21042;-64
2021/06/30 08:35:00;;;;;;;2.27;1.05;;;;;;;30.71;37.51;99260.88;1713787;84;20982;-65
2021/06/30 08:37:26;;;;;;;1.82;1.00;;;;;;;30.80;35.84;99257.55;1713482;84;21109;-64
2021/06/30 08:39:54;;;;;;;3.42;1.05;;;;;;;30.79;37.05;99258.75;1720118;83;21048;-64
2021/06/30 08:42:21;;;;;;;1.42;1.00;;;;;;;30.71;36.82;99250.24;1720744;83;21124;-65
2021/06/30 08:44:48;;;;;;;2.10;1.40;;;;;;;30.42;34.67;99252.55;1721103;83;21048;-65
2021/06/30 08:47:14;;;;;;;2.02;1.00;;;;;;;30.21;37.55;99252.72;1720972;83;21072;-65
2021/06/30 08:49:42;;;;;;;1.32;0.90;;;;;;;30.31;37.64;99260.24;1716291;83;21820;-65
2021/06/30 08:52:11;;;;;;;1.98;1.20;;;;;;;30.14;36.00;99249.38;1716372;83;21061;-64
2021/06/30 08:54:42;;;;;;;2.12;1.10;;;;;;;29.97;37.08;99255.95;1720997;83;21448;-63
2021/06/30 08:57:10;;;;;;;1.85;1.12;;;;;;;30.10;37.90;99248.61;1720717;83;21081;-63
2021/06/30 08:59:36;;;;;;;1.77;0.93;;;;;;;30.28;37.60;99253.45;1717793;83;20980;-65
2021/06/30 09:02:04;;;;;;;2.92;1.25;;;;;;;30.40;36.21;99249.31;1714877;83;21089;-65
2021/06/30 09:04:32;;;;;;;2.92;1.20;;;;;;;30.34;36.55;99249.58;1721157;83;21005;-65
2021/06/30 09:06:59;;;;;;;2.33;0.95;;;;;;;30.38;36.60;99255.36;1720964;83;21528;-65
2021/06/30 09:09:26;;;;;;;1.60;1.22;;;;;;;30.46;37.18;99251.31;1714281;83;21038;-65
2021/06/30 09:11:58;;;;;;;2.40;1.10;;;;;;;30.72;37.39;99251.20;1713668;84;21050;-65
2021/06/30 09:14:35;;;;;;;2.05;1.10;;;;;;;30.89;35.63;99251.61;1713372;84;21860;-64
2021/06/30 09:17:11;;;;;;;1.92;1.10;;;;;;;30.91;34.17;99240.77;1713274;83;21629;-65
2021/06/30 09:19:50;;;;;;;;;;;;;;;30.63;35.83;99243.09;1715206;83;20999;-65
2021/06/30 09:22:17;;;;;;;2.17;1.10;;;;;;;30.48;36.49;99242.45;1713568;84;20117;-64
2021/06/30 09:24:44;;;;;;;2.98;1.40;;;;;;;30.35;36.30;99237.14;1713499;84;21509;-65
2021/06/30 09:27:12;;;;;;;5.12;1.67;;;;;;;30.37;37.09;99239.72;1715777;83;21017;-64
2021/06/30 09:29:41;;;;;;;2.47;1.30;;;;;;;30.43;36.51;99232.45;1721106;83;20970;-64
2021/06/30 09:32:14;;;;;;;2.85;1.22;;;;;;;30.09;37.67;99234.38;1721089;83;21024;-65
2021/06/30 09:34:41;;;;;;;1.82;1.52;;;;;;;30.13;38.34;99230.94;1721230;83;21516;-65
2021/06/30 09:37:08;;;;;;;2.85;1.40;;;;;;;30.31;37.24;99220.34;1720242;83;21013;-65
2021/06/30 09:39:54;;;;;;;2.02;1.20;;;;;;;30.47;37.56;99224.00;1713564;84;21082;-66
2021/06/30 09:42:22;;;;;;;1.75;1.30;;;;;;;30.67;35.97;99227.81;1713713;84;21566;-65
2021/06/30 09:44:49;;;;;;;2.47;1.30;;;;;;;30.85;36.67;99218.56;1713599;84;21463;-65
2021/06/30 09:47:16;;;;;;;3.10;1.20;;;;;;;30.93;35.39;99215.83;1718909;83;21137;-64
2021/06/30 09:49:44;;;;;;;2.47;1.50;;;;;;;30.93;34.92;99218.64;1721026;83;21009;-64
2021/06/30 09:52:17;;;;;;;2.60;1.55;;;;;;;30.95;35.56;99210.60;1704775;83;21471;-65
2021/06/30 09:54:46;;;;;;;2.20;1.57;;;;;;;31.02;36.42;99216.77;1720804;83;21362;-65
2021/06/30 09:57:15;;;;;;;2.72;1.80;;;;;;;31.00;34.66;99219.19;1717234;83;21042;-65
2021/06/30 09:59:46;;;;;;;2.62;1.40;;;;;;;30.91;35.26;99220.29;1713367;84;20999;-64
2021/06/30 10:02:19;;;;;;;2.08;1.60;;;;;;;30.92;35.37;99217.67;1717576;83;21709;-65
2021/06/30 10:04:57;;;;;;;2.05;1.35;;;;;;;31.01;36.94;99214.56;1721173;83;21050;-65
2021/06/30 10:07:27;;;;;;;1.70;1.40;;;;;;;31.17;35.23;99211.16;1717909;83;21055;-65
2021/06/30 10:10:07;;;;;;;3.20;1.45;;;;;;;31.19;33.37;99213.52;1715098;83;21567;-63
2021/06/30 10:12:34;;;;;;;2.40;1.42;;;;;;;31.17;34.87;99213.97;1720899;83;21060;-64
2021/06/30 10:15:06;;;;;;;1.80;1.52;;;;;;;31.18;34.46;99209.91;1720807;83;21030;-64
2021/06/30 10:17:33;;;;;;;2.00;1.60;;;;;;;31.20;35.06;99215.92;1714366;82;21063;-65
2021/06/30 10:20:02;;;;;;;1.52;1.20;;;;;;;31.26;36.05;99218.45;1733464;83;21482;-65
2021/06/30 10:22:30;;;;;;;2.47;1.70;;;;;;;31.19;35.20;99214.93;1733487;81;21023;-65
2021/06/30 10:24:57;;;;;;;1.98;1.47;;;;;;;30.93;35.88;99220.05;1709043;83;21501;-64
2021/06/30 10:27:24;;;;;;;2.05;1.40;;;;;;;30.83;36.49;99216.77;1719563;82;21042;-66
2021/06/30 10:29:57;;;;;;;3.80;1.57;;;;;;;30.81;35.98;99215.00;1715694;83;21039;-64
2021/06/30 10:32:24;;;;;;;4.55;1.60;;;;;;;30.60;35.41;99210.43;1716242;83;21054;-65
2021/06/30 10:35:04;;;;;;;2.60;1.80;;;;;;;30.24;36.08;99211.98;1694279;83;20966;-64
2021/06/30 10:37:32;;;;;;;2.75;1.45;;;;;;;30.18;37.17;99211.45;1733384;81;21110;-64
2021/06/30 10:40:12;;;;;;;3.70;2.08;;;;;;;30.34;36.03;99209.67;1733291;82;20986;-64
2021/06/30 10:42:42;;;;;;;3.42;1.85;;;;;;;30.52;37.54;99210.31;1733639;81;21035;-62
2021/06/30 10:45:21;;;;;;;2.15;1.60;;;;;;;30.81;36.57;99200.95;1730165;83;20979;-62
2021/06/30 10:47:51;;;;;;;2.20;1.70;;;;;;;30.96;36.04;99200.94;1716454;83;21058;-65
2021/06/30 10:50:31;;;;;;;2.65;1.80;;;;;;;30.83;36.20;99195.69;1716381;83;21114;-63
2021/06/30 10:53:12;;;;;;;2.00;1.60;;;;;;;30.81;35.58;99193.13;1716023;83;21106;-63
2021/06/30 10:55:48;;;;;;;2.25;1.67;;;;;;;30.76;34.87;99185.15;1687829;83;21015;-64
2021/06/30 10:58:19;;;;;;;2.85;1.72;;;;;;;30.61;36.25;99183.11;1685960;85;21118;-64
2021/06/30 11:01:02;;;;;;;4.58;2.42;;;;;;;30.55;37.11;99175.77;1659296;85;21054;-64
2021/06/30 11:03:45;;;;;;;2.45;1.75;;;;;;;30.61;36.40;99172.67;1685983;85;21067;-64
2021/06/30 11:06:25;;;;;;;2.27;1.60;;;;;;;30.80;35.64;99171.86;1714644;82;21046;-64
2021/06/30 11:08:56;;;;;;;3.83;1.62;;;;;;;30.97;35.24;99171.65;1716305;83;20995;-63
2021/06/30 11:11:33;;;;;;;1.95;1.67;;;;;;;31.10;33.71;99167.68;1716083;83;21011;-63
2021/06/30 11:14:17;;;;;;;3.92;3.52;;;;;;;31.24;34.44;99161.05;1697718;83;21039;-63
2021/06/30 11:16:50;;;;;;;5.35;4.60;;;;;;;31.15;35.06;99160.16;1685854;85;21060;-64
2021/06/30 11:19:24;;;;;;;4.33;3.40;;;;;;;31.09;35.07;99161.26;1688979;83;21069;-64
2021/06/30 11:21:58;;;;;;;1.82;1.50;;;;;;;30.96;34.23;99156.60;1690941;85;21022;-64
2021/06/30 11:24:43;;;;;;;1.67;1.42;;;;;;;30.95;34.76;99152.99;1710205;83;21040;-65
2021/06/30 11:27:24;;;;;;;4.28;1.92;;;;;;;31.00;34.58;99151.12;1720893;83;21615;-64
2021/06/30 11:29:58;;;;;;;3.10;1.80;;;;;;;31.01;34.52;99149.12;1720972;83;21037;-65
2021/06/30 11:32:39;;;;;;;3.22;1.85;;;;;;;31.08;34.36;99141.38;1721068;83;21409;-65
2021/06/30 11:35:24;;;;;;;2.47;1.80;;;;;;;31.17;33.84;99140.07;1721083;83;21054;-66
2021/06/30 11:38:06;;;;;;;2.95;1.70;;;;;;;31.16;35.34;99136.45;1720538;83;21034;-64
2021/06/30 11:43:01;;;;;;;2.62;1.70;;;;;;;31.14;34.56;99122.05;1720916;83;21069;-65
2021/06/30 11:45:34;;;;;;;3.08;1.37;;;;;;;31.15;35.74;99125.63;1721182;83;21010;-65